createdAt,value
2023-12-05T00:00:35.469Z,100527.31
2023-12-05T00:03:01.910Z,100531.00
2023-12-05T00:05:28.414Z,100532.63
2023-12-05T00:07:55.508Z,100527.88
2023-12-05T00:10:21.769Z,100515.63
2023-12-05T00:12:48.115Z,100511.34
2023-12-05T00:15:14.398Z,100511.53
2023-12-05T00:17:40.737Z,100503.34
2023-12-05T00:20:07.047Z,100502.31
2023-12-05T00:22:33.472Z,100494.97
2023-12-05T00:24:59.726Z,100493.31
2023-12-05T00:27:26.818Z,100493.97
2023-12-05T00:29:53.477Z,100495.38
2023-12-05T00:32:19.819Z,100498.03
2023-12-05T00:34:46.107Z,100491.25
2023-12-05T00:37:12.553Z,100502.31
2023-12-05T00:39:38.909Z,100485.94
2023-12-05T00:42:05.394Z,100480.63
2023-12-05T00:44:31.724Z,100487.75
2023-12-05T00:46:58.107Z,100480.63
2023-12-05T00:49:24.540Z,100473.66
2023-12-05T00:51:50.929Z,100473.84
2023-12-05T00:54:17.304Z,100474.44
2023-12-05T00:56:43.609Z,100472.81
2023-12-05T00:59:09.884Z,100472.81
2023-12-05T01:01:36.163Z,100474.66
2023-12-05T01:04:02.583Z,100471.97
2023-12-05T01:06:29.023Z,100468.72
2023-12-05T01:08:55.327Z,100474.84
2023-12-05T01:11:21.582Z,100474.66
2023-12-05T01:13:47.952Z,100474.22
2023-12-05T01:16:14.233Z,100485.47
2023-12-05T01:18:40.616Z,100483.47
2023-12-05T01:21:06.933Z,100483.47
2023-12-05T01:23:33.320Z,100487.16
2023-12-05T01:25:59.595Z,100488.78
2023-12-05T01:28:25.993Z,100486.31
2023-12-05T01:30:52.384Z,100492.66
2023-12-05T01:33:18.850Z,100481.38
2023-12-05T01:35:45.197Z,100477.91
2023-12-05T01:38:11.485Z,100479.94
2023-12-05T01:40:38.114Z,100480.75
2023-12-05T01:43:04.364Z,100469.94
2023-12-05T01:45:30.700Z,100469.09
2023-12-05T01:47:57.079Z,100468.25
2023-12-05T01:50:24.032Z,100471.16
2023-12-05T01:52:50.481Z,100474.41
2023-12-05T01:55:16.769Z,100475.44
2023-12-05T01:57:43.045Z,100475.44
2023-12-05T02:00:09.324Z,100472.97
2023-12-05T02:02:35.559Z,100472.78
2023-12-05T02:05:02.152Z,100474.78
2023-12-05T02:07:28.497Z,100463.34
2023-12-05T02:09:55.299Z,100470.31
2023-12-05T02:12:32.489Z,100463.34
2023-12-05T02:14:58.954Z,100455.56
2023-12-05T02:17:25.265Z,100453.91
2023-12-05T02:19:51.707Z,100443.69
2023-12-05T02:22:17.947Z,100448.41
2023-12-05T02:24:44.295Z,100442.06
2023-12-05T02:27:10.601Z,100442.66
2023-12-05T02:29:36.940Z,100444.72
2023-12-05T02:32:03.208Z,100441.88
2023-12-05T02:34:29.578Z,100441.22
2023-12-05T02:36:55.909Z,100439.41
2023-12-05T02:39:22.253Z,100434.06
2023-12-05T02:41:48.632Z,100432.22
2023-12-05T02:44:14.989Z,100429.78
2023-12-05T02:46:41.296Z,100434.47
2023-12-05T02:49:07.753Z,100438.94
2023-12-05T02:51:34.261Z,100432.44
2023-12-05T02:54:00.592Z,100431.41
2023-12-05T02:56:26.893Z,100431.22
2023-12-05T02:58:53.150Z,100419.94
2023-12-05T03:01:19.737Z,100424.66
2023-12-05T03:03:46.154Z,100420.56
2023-12-05T03:06:12.858Z,100414.59
2023-12-05T03:08:39.125Z,100402.94
2023-12-05T03:11:09.692Z,100397.84
2023-12-05T03:13:36.429Z,100389.03
2023-12-05T03:16:02.688Z,100390.84
2023-12-05T03:18:29.147Z,100397.38
2023-12-05T03:20:55.650Z,100396.59
2023-12-05T03:23:22.037Z,100390.63
2023-12-05T03:25:48.400Z,100385.53
2023-12-05T03:28:14.646Z,100387.78
2023-12-05T03:30:40.975Z,100385.94
2023-12-05T03:33:07.309Z,100385.72
2023-12-05T03:35:33.605Z,100384.50
2023-12-05T03:37:59.872Z,100388.59
2023-12-05T03:40:27.011Z,100386.13
2023-12-05T03:42:53.290Z,100387.16
2023-12-05T03:45:19.623Z,100389.59
2023-12-05T03:47:45.997Z,100401.47
2023-12-05T03:50:12.539Z,100404.97
2023-12-05T03:52:38.805Z,100415.41
2023-12-05T03:55:05.190Z,100403.94
2023-12-05T03:57:31.470Z,100400.06
2023-12-05T03:59:57.738Z,100413.16
2023-12-05T04:02:24.039Z,100421.94
2023-12-05T04:04:50.479Z,100414.97
2023-12-05T04:07:16.862Z,100414.16
2023-12-05T04:09:43.160Z,100413.50
2023-12-05T04:12:09.468Z,100410.84
2023-12-05T04:14:40.562Z,100416.19
2023-12-05T04:17:07.032Z,100418.44
2023-12-05T04:19:33.440Z,100422.94
2023-12-05T04:21:59.979Z,100414.34
2023-12-05T04:24:26.349Z,100404.31
2023-12-05T04:26:52.710Z,100403.91
2023-12-05T04:29:18.974Z,100407.38
2023-12-05T04:31:45.257Z,100401.22
2023-12-05T04:34:11.820Z,100403.06
2023-12-05T04:36:38.165Z,100400.22
2023-12-05T04:39:04.431Z,100405.34
2023-12-05T04:41:30.828Z,100396.94
2023-12-05T04:43:57.274Z,100400.22
2023-12-05T04:46:23.751Z,100397.97
2023-12-05T04:48:50.244Z,100389.56
2023-12-05T04:51:16.651Z,100396.56
2023-12-05T04:53:43.107Z,100395.06
2023-12-05T04:56:09.386Z,100376.91
2023-12-05T04:58:36.014Z,100380.78
2023-12-05T05:01:02.347Z,100378.72
2023-12-05T05:03:28.884Z,100387.53
2023-12-05T05:05:55.209Z,100391.84
2023-12-05T05:08:21.663Z,100397.16
2023-12-05T05:10:48.152Z,100388.34
2023-12-05T05:13:14.417Z,100397.81
2023-12-05T05:15:40.830Z,100400.63
2023-12-05T05:18:07.170Z,100398.97
2023-12-05T05:20:33.509Z,100396.94
2023-12-05T05:22:59.819Z,100402.25
2023-12-05T05:25:26.135Z,100393.25
2023-12-05T05:27:52.482Z,100395.50
2023-12-05T05:30:18.860Z,100390.78
2023-12-05T05:32:45.325Z,100396.94
2023-12-05T05:35:12.062Z,100396.28
2023-12-05T05:37:38.533Z,100395.50
2023-12-05T05:40:04.831Z,100385.88
2023-12-05T05:42:31.164Z,100378.69
2023-12-05T05:44:57.486Z,100386.25
2023-12-05T05:47:24.059Z,100389.97
2023-12-05T05:49:50.444Z,100388.56
2023-12-05T05:52:16.833Z,100378.91
2023-12-05T05:54:43.197Z,100388.53
2023-12-05T05:57:09.508Z,100382.19
2023-12-05T05:59:35.862Z,100377.91
2023-12-05T06:02:02.244Z,100376.69
2023-12-05T06:04:28.751Z,100383.81
2023-12-05T06:06:55.603Z,100386.69
2023-12-05T06:09:22.137Z,100389.97
2023-12-05T06:11:48.631Z,100393.44
2023-12-05T06:14:14.904Z,100393.88
2023-12-05T06:16:41.463Z,100396.91
2023-12-05T06:19:07.826Z,100386.44
2023-12-05T06:21:34.180Z,100389.53
2023-12-05T06:24:02.543Z,100394.03
2023-12-05T06:26:28.965Z,100397.47
2023-12-05T06:28:55.225Z,100399.38
2023-12-05T06:31:22.324Z,100399.56
2023-12-05T06:33:48.914Z,100401.00
2023-12-05T06:36:15.429Z,100403.28
2023-12-05T06:38:41.680Z,100400.81
2023-12-05T06:41:08.009Z,100404.88
2023-12-05T06:43:34.235Z,100408.13
2023-12-05T06:46:08.561Z,100403.03
2023-12-05T06:48:34.927Z,100404.88
2023-12-05T06:51:01.233Z,100412.06
2023-12-05T06:53:27.501Z,100400.59
2023-12-05T06:55:53.977Z,100410.22
2023-12-05T06:58:20.243Z,100416.34
2023-12-05T07:00:46.520Z,100402.81
2023-12-05T07:03:12.852Z,100409.19
2023-12-05T07:05:39.247Z,100408.13
2023-12-05T07:08:05.593Z,100411.84
2023-12-05T07:10:32.009Z,100411.66
2023-12-05T07:12:58.309Z,100410.22
2023-12-05T07:15:24.667Z,100414.31
2023-12-05T07:17:51.033Z,100414.31
2023-12-05T07:20:17.332Z,100418.81
2023-12-05T07:22:43.613Z,100413.06
2023-12-05T07:25:09.922Z,100409.41
2023-12-05T07:27:42.349Z,100398.16
2023-12-05T07:30:08.671Z,100394.84
2023-12-05T07:32:35.058Z,100398.31
2023-12-05T07:35:01.555Z,100403.63
2023-12-05T07:37:27.875Z,100409.56
2023-12-05T07:39:54.151Z,100423.16
2023-12-05T07:42:20.459Z,100409.38
2023-12-05T07:44:46.758Z,100420.47
2023-12-05T07:47:13.056Z,100417.63
2023-12-05T07:49:39.336Z,100411.66
2023-12-05T07:52:05.767Z,100410.81
2023-12-05T07:54:32.185Z,100405.31
2023-12-05T07:56:58.514Z,100407.59
2023-12-05T07:59:25.697Z,100407.97
2023-12-05T08:01:52.010Z,100415.94
2023-12-05T08:04:18.377Z,100411.69
2023-12-05T08:06:44.699Z,100410.81
2023-12-05T08:09:10.973Z,100423.56
2023-12-05T08:11:37.284Z,100418.59
2023-12-05T08:14:03.619Z,100420.66
2023-12-05T08:16:29.871Z,100419.00
2023-12-05T08:18:56.235Z,100414.09
2023-12-05T08:21:23.636Z,100412.84
2023-12-05T08:23:49.942Z,100411.00
2023-12-05T08:26:16.194Z,100410.78
2023-12-05T08:28:42.496Z,100416.50
2023-12-05T08:31:08.745Z,100414.25
2023-12-05T08:33:35.148Z,100419.97
2023-12-05T08:36:01.545Z,100423.06
2023-12-05T08:38:27.844Z,100423.84
2023-12-05T08:40:54.181Z,100427.03
2023-12-05T08:43:20.450Z,100424.16
2023-12-05T08:45:46.781Z,100417.28
2023-12-05T08:48:13.114Z,100421.00
2023-12-05T08:50:39.439Z,100423.06
2023-12-05T08:53:05.739Z,100418.56
2023-12-05T08:55:32.032Z,100419.63
2023-12-05T08:57:58.565Z,100418.22
2023-12-05T09:00:24.972Z,100415.97
2023-12-05T09:02:51.264Z,100416.97
2023-12-05T09:05:17.625Z,100419.00
2023-12-05T09:07:44.983Z,100417.53
2023-12-05T09:10:12.691Z,100416.75
2023-12-05T09:12:38.990Z,100416.56
2023-12-05T09:15:05.287Z,100416.94
2023-12-05T09:17:31.681Z,100423.28
2023-12-05T09:19:58.026Z,100423.91
2023-12-05T09:22:24.415Z,100419.78
2023-12-05T09:24:50.766Z,100422.69
2023-12-05T09:27:17.033Z,100422.88
2023-12-05T09:29:50.114Z,100426.94
2023-12-05T09:32:17.405Z,100429.41
2023-12-05T09:34:50.302Z,100427.13
2023-12-05T09:37:16.606Z,100434.88
2023-12-05T09:39:42.932Z,100432.03
2023-12-05T09:42:09.603Z,100425.09
2023-12-05T09:44:36.047Z,100427.91
2023-12-05T09:47:02.333Z,100427.97
2023-12-05T09:49:28.765Z,100422.59
2023-12-05T09:51:55.949Z,100424.22
2023-12-05T09:54:22.317Z,100428.53
2023-12-05T09:56:48.800Z,100416.22
2023-12-05T09:59:15.166Z,100422.13
2023-12-05T10:01:41.450Z,100427.03
2023-12-05T10:04:07.862Z,100420.53
2023-12-05T10:06:34.393Z,100416.03
2023-12-05T10:09:00.651Z,100414.00
2023-12-05T10:11:27.100Z,100412.97
2023-12-05T10:13:53.391Z,100419.84
2023-12-05T10:16:19.645Z,100416.63
2023-12-05T10:18:46.082Z,100408.00
2023-12-05T10:21:12.538Z,100406.78
2023-12-05T10:23:39.122Z,100417.03
2023-12-05T10:26:05.436Z,100406.16
2023-12-05T10:28:31.791Z,100408.59
2023-12-05T10:31:07.265Z,100401.88
2023-12-05T10:33:33.765Z,100395.69
2023-12-05T10:36:00.291Z,100386.06
2023-12-05T10:38:26.804Z,100385.28
2023-12-05T10:40:53.173Z,100390.78
2023-12-05T10:43:19.439Z,100385.28
2023-12-05T10:45:55.894Z,100381.78
2023-12-05T10:48:22.333Z,100376.47
2023-12-05T10:50:50.726Z,100379.53
2023-12-05T10:53:17.232Z,100375.03
2023-12-05T10:55:43.522Z,100368.44
2023-12-05T10:58:09.795Z,100373.34
2023-12-05T11:00:36.130Z,100371.09
2023-12-05T11:03:02.544Z,100370.72
2023-12-05T11:05:28.828Z,100368.44
2023-12-05T11:07:55.087Z,100367.88
2023-12-05T11:10:21.383Z,100366.44
2023-12-05T11:12:47.707Z,100355.84
2023-12-05T11:15:14.031Z,100353.94
2023-12-05T11:17:40.505Z,100350.06
2023-12-05T11:20:06.864Z,100354.47
2023-12-05T11:22:33.230Z,100350.94
2023-12-05T11:24:59.528Z,100351.97
2023-12-05T11:27:25.902Z,100346.06
2023-12-05T11:29:52.371Z,100353.44
2023-12-05T11:32:18.670Z,100355.88
2023-12-05T11:34:45.112Z,100353.81
2023-12-05T11:37:11.564Z,100353.03
2023-12-05T11:39:37.891Z,100350.56
2023-12-05T11:42:04.186Z,100348.06
2023-12-05T11:44:30.603Z,100351.53
2023-12-05T11:46:56.903Z,100352.56
2023-12-05T11:49:23.255Z,100343.38
2023-12-05T11:51:49.635Z,100344.84
2023-12-05T11:54:22.846Z,100345.63
2023-12-05T11:56:49.122Z,100342.56
2023-12-05T11:59:15.404Z,100345.00
2023-12-05T12:01:42.515Z,100341.75
2023-12-05T12:04:09.459Z,100341.53
2023-12-05T12:06:35.904Z,100341.16
2023-12-05T12:09:02.199Z,100340.31
2023-12-05T12:11:28.484Z,100341.34
2023-12-05T12:13:54.769Z,100340.56
2023-12-05T12:16:21.051Z,100338.50
2023-12-05T12:18:53.452Z,100337.47
2023-12-05T12:21:21.613Z,100339.72
2023-12-05T12:23:49.519Z,100339.91
2023-12-05T12:26:16.822Z,100343.97
2023-12-05T12:28:43.150Z,100334.38
2023-12-05T12:31:09.574Z,100341.50
2023-12-05T12:33:36.108Z,100332.53
2023-12-05T12:36:02.744Z,100339.09
2023-12-05T12:38:29.019Z,100336.22
2023-12-05T12:40:55.397Z,100330.31
2023-12-05T12:43:21.747Z,100340.09
2023-12-05T12:45:48.104Z,100348.91
2023-12-05T12:48:24.547Z,100346.66
2023-12-05T12:50:50.919Z,100335.22
2023-12-05T12:53:17.185Z,100333.19
2023-12-05T12:55:43.468Z,100332.88
2023-12-05T12:58:09.767Z,100336.13
2023-12-05T13:00:37.835Z,100330.28
2023-12-05T13:03:04.599Z,100326.38
2023-12-05T13:05:31.003Z,100330.69
2023-12-05T13:07:57.315Z,100333.72
2023-12-05T13:10:23.583Z,100329.03
2023-12-05T13:12:49.892Z,100330.47
2023-12-05T13:15:16.176Z,100319.47
2023-12-05T13:17:42.506Z,100323.16
2023-12-05T13:20:08.806Z,100313.78
2023-12-05T13:22:35.123Z,100320.53
2023-12-05T13:25:01.559Z,100315.69
2023-12-05T13:27:27.916Z,100321.22
2023-12-05T13:29:54.299Z,100319.81
2023-12-05T13:32:20.557Z,100331.69
2023-12-05T13:34:46.870Z,100331.94
2023-12-05T13:37:13.172Z,100330.72
2023-12-05T13:39:39.470Z,100332.78
2023-12-05T13:42:05.763Z,100334.84
2023-12-05T13:44:32.045Z,100325.66
2023-12-05T13:46:58.409Z,100331.84
2023-12-05T13:49:24.820Z,100331.88
2023-12-05T13:51:51.209Z,100337.84
2023-12-05T13:54:18.738Z,100338.28
2023-12-05T13:56:55.003Z,100337.47
2023-12-05T13:59:21.281Z,100340.16
2023-12-05T14:01:47.686Z,100342.25
2023-12-05T14:04:14.470Z,100339.78
2023-12-05T14:06:40.940Z,100342.66
2023-12-05T14:09:07.277Z,100348.00
2023-12-05T14:11:43.541Z,100352.53
2023-12-05T14:14:15.832Z,100341.50
2023-12-05T14:16:42.149Z,100349.50
2023-12-05T14:19:08.857Z,100349.72
2023-12-05T14:21:35.290Z,100347.66
2023-12-05T14:24:01.572Z,100349.53
2023-12-05T14:26:27.906Z,100354.63
2023-12-05T14:28:54.149Z,100352.00
2023-12-05T14:31:20.448Z,100357.09
2023-12-05T14:33:46.858Z,100358.75
2023-12-05T14:36:13.199Z,100357.72
2023-12-05T14:38:39.535Z,100364.47
2023-12-05T14:41:05.836Z,100363.44
2023-12-05T14:43:32.083Z,100370.41
2023-12-05T14:45:58.505Z,100371.00
2023-12-05T14:48:24.912Z,100361.75
2023-12-05T14:50:51.250Z,100362.34
2023-12-05T14:53:17.635Z,100365.00
2023-12-05T14:55:43.936Z,100372.78
2023-12-05T14:58:10.295Z,100373.38
2023-12-05T15:00:36.588Z,100365.53
2023-12-05T15:03:02.990Z,100358.53
2023-12-05T15:05:29.369Z,100363.25
2023-12-05T15:07:55.762Z,100363.44
2023-12-05T15:10:22.053Z,100371.63
2023-12-05T15:12:48.449Z,100369.75
2023-12-05T15:15:14.706Z,100369.94
2023-12-05T15:17:41.280Z,100375.25
2023-12-05T15:20:19.810Z,100377.28
2023-12-05T15:22:49.784Z,100379.09
2023-12-05T15:25:16.031Z,100375.53
2023-12-05T15:27:42.330Z,100383.53
2023-12-05T15:30:08.601Z,100371.16
2023-12-05T15:32:34.930Z,100387.34
2023-12-05T15:35:01.274Z,100386.31
2023-12-05T15:37:27.536Z,100385.63
2023-12-05T15:39:53.868Z,100383.13
2023-12-05T15:42:20.181Z,100385.16
2023-12-05T15:44:46.545Z,100378.94
2023-12-05T15:47:15.325Z,100378.50
2023-12-05T15:49:41.957Z,100389.56
2023-12-05T15:52:08.299Z,100389.16
2023-12-05T15:54:34.665Z,100391.22
2023-12-05T15:57:00.988Z,100393.44
2023-12-05T15:59:27.311Z,100389.28
2023-12-05T16:01:53.717Z,100385.97
2023-12-05T16:04:20.041Z,100378.31
2023-12-05T16:06:46.346Z,100388.38
2023-12-05T16:09:12.641Z,100385.84
2023-12-05T16:11:40.512Z,100380.84
2023-12-05T16:14:06.924Z,100382.88
2023-12-05T16:16:33.260Z,100383.03
2023-12-05T16:18:59.570Z,100395.78
2023-12-05T16:21:25.941Z,100399.41
2023-12-05T16:23:52.225Z,100397.72
2023-12-05T16:26:18.526Z,100402.41
2023-12-05T16:28:44.845Z,100398.03
2023-12-05T16:31:15.675Z,100396.09
2023-12-05T16:33:42.092Z,100398.31
2023-12-05T16:36:08.414Z,100390.44
2023-12-05T16:38:34.906Z,100399.66
2023-12-05T16:41:01.181Z,100399.00
2023-12-05T16:43:27.461Z,100399.38
2023-12-05T16:45:53.738Z,100388.22
2023-12-05T16:48:22.720Z,100391.25
2023-12-05T16:50:49.034Z,100398.84
2023-12-05T16:53:15.461Z,100398.38
2023-12-05T16:55:41.694Z,100394.69
2023-12-05T16:58:08.029Z,100389.91
2023-12-05T17:00:34.441Z,100393.19
2023-12-05T17:03:00.837Z,100390.88
2023-12-05T17:05:27.474Z,100391.69
2023-12-05T17:08:03.794Z,100390.44
2023-12-05T17:10:30.086Z,100391.25
2023-12-05T17:12:56.782Z,100402.59
2023-12-05T17:15:23.098Z,100408.75
2023-12-05T17:17:49.535Z,100408.53
2023-12-05T17:20:15.818Z,100406.88
2023-12-05T17:22:42.065Z,100402.09
2023-12-05T17:25:08.436Z,100409.13
2023-12-05T17:27:34.788Z,100407.25
2023-12-05T17:30:21.240Z,100402.94
2023-12-05T17:32:47.533Z,100404.78
2023-12-05T17:35:13.906Z,100408.28
2023-12-05T17:37:42.200Z,100408.53
2023-12-05T17:40:09.120Z,100410.16
2023-12-05T17:42:35.531Z,100405.03
2023-12-05T17:45:02.046Z,100406.88
2023-12-05T17:47:28.588Z,100410.84
2023-12-05T17:49:54.935Z,100408.16
2023-12-05T17:52:21.183Z,100404.06
2023-12-05T17:54:47.477Z,100404.06
2023-12-05T17:57:13.784Z,100414.78
2023-12-05T17:59:40.059Z,100405.88
2023-12-05T18:02:06.433Z,100416.84
2023-12-05T18:04:32.887Z,100409.00
2023-12-05T18:07:50.075Z,100411.94
2023-12-05T18:09:45.920Z,100416.47
2023-12-05T18:12:21.801Z,100412.97
2023-12-05T18:14:48.618Z,100411.56
2023-12-05T18:17:14.911Z,100423.31
2023-12-05T18:19:41.545Z,100417.97
2023-12-05T18:22:08.442Z,100425.19
2023-12-05T18:24:34.749Z,100422.75
2023-12-05T18:27:05.073Z,100425.44
2023-12-05T18:29:31.510Z,100426.44
2023-12-05T18:31:57.755Z,100426.66
2023-12-05T18:34:24.143Z,100428.53
2023-12-05T18:36:50.575Z,100427.34
2023-12-05T18:39:23.940Z,100432.94
2023-12-05T18:41:50.320Z,100442.03
2023-12-05T18:44:19.591Z,100438.50
2023-12-05T18:46:46.239Z,100437.72
2023-12-05T18:49:12.551Z,100438.28
2023-12-05T18:51:38.893Z,100439.34
2023-12-05T18:54:07.187Z,100436.03
2023-12-05T18:56:33.485Z,100436.03
2023-12-05T18:58:59.739Z,100440.38
2023-12-05T19:01:26.103Z,100438.97
2023-12-05T19:03:52.788Z,100440.81
2023-12-05T19:06:19.179Z,100439.78
2023-12-05T19:08:45.487Z,100429.28
2023-12-05T19:11:12.067Z,100441.66
2023-12-05T19:13:38.418Z,100434.41
2023-12-05T19:16:04.753Z,100431.75
2023-12-05T19:18:31.211Z,100433.63
2023-12-05T19:20:57.673Z,100430.69
2023-12-05T19:23:23.976Z,100431.28
2023-12-05T19:25:50.353Z,100433.38
2023-12-05T19:28:26.587Z,100439.56
2023-12-05T19:30:52.983Z,100431.28
2023-12-05T19:33:19.382Z,100442.03
2023-12-05T19:35:45.987Z,100438.50
2023-12-05T19:38:12.274Z,100445.50
2023-12-05T19:40:38.718Z,100440.38
2023-12-05T19:43:04.999Z,100435.81
2023-12-05T19:45:31.322Z,100433.38
2023-12-05T19:47:57.821Z,100426.16
2023-12-05T19:50:24.144Z,100431.50
2023-12-05T19:52:50.545Z,100428.63
2023-12-05T19:55:16.841Z,100428.00
2023-12-05T19:57:43.195Z,100430.69
2023-12-05T20:00:09.449Z,100434.41
2023-12-05T20:02:35.777Z,100438.97
2023-12-05T20:05:02.161Z,100448.84
2023-12-05T20:07:28.516Z,100450.72
2023-12-05T20:09:54.815Z,100448.25
2023-12-05T20:12:21.142Z,100453.84
2023-12-05T20:14:47.407Z,100449.97
2023-12-05T20:17:13.653Z,100444.63
2023-12-05T20:19:40.060Z,100439.91
2023-12-05T20:22:06.608Z,100445.28
2023-12-05T20:24:32.975Z,100446.31
2023-12-05T20:26:59.331Z,100441.19
2023-12-05T20:29:25.782Z,100445.13
2023-12-05T20:31:52.303Z,100445.94
2023-12-05T20:34:18.956Z,100453.59
2023-12-05T20:36:45.370Z,100450.13
2023-12-05T20:39:11.751Z,100454.66
2023-12-05T20:41:38.313Z,100451.34
2023-12-05T20:44:04.646Z,100446.00
2023-12-05T20:46:30.974Z,100458.81
2023-12-05T20:48:57.320Z,100445.63
2023-12-05T20:51:23.656Z,100448.75
2023-12-05T20:53:49.888Z,100448.97
2023-12-05T20:56:16.179Z,100443.00
2023-12-05T20:58:42.711Z,100444.06
2023-12-05T21:01:09.190Z,100451.47
2023-12-05T21:03:35.620Z,100449.25
2023-12-05T21:06:01.927Z,100454.16
2023-12-05T21:09:08.782Z,100456.69
2023-12-05T21:11:15.287Z,100462.88
2023-12-05T21:13:41.516Z,100457.09
2023-12-05T21:16:07.832Z,100450.34
2023-12-05T21:18:34.309Z,100445.81
2023-12-05T21:21:00.934Z,100449.75
2023-12-05T21:23:27.860Z,100443.78
2023-12-05T21:25:54.316Z,100448.94
2023-12-05T21:28:20.621Z,100440.09
2023-12-05T21:30:47.012Z,100441.09
2023-12-05T21:33:13.936Z,100448.13
2023-12-05T21:35:40.972Z,100447.13
2023-12-05T21:38:07.350Z,100448.59
2023-12-05T21:40:33.585Z,100445.31
2023-12-05T21:42:59.907Z,100447.84
2023-12-05T21:45:26.238Z,100435.28
2023-12-05T21:47:53.044Z,100433.88
2023-12-05T21:50:19.375Z,100448.28
2023-12-05T21:52:45.939Z,100448.50
2023-12-05T21:55:12.287Z,100454.06
2023-12-05T21:57:38.570Z,100453.69
2023-12-05T22:00:04.856Z,100465.63
2023-12-05T22:02:31.123Z,100470.38
2023-12-05T22:04:57.463Z,100483.78
2023-12-05T22:07:24.034Z,100485.84
2023-12-05T22:09:51.226Z,100499.44
2023-12-05T22:12:17.703Z,100479.28
2023-12-05T22:14:43.982Z,100484.84
2023-12-05T22:17:10.271Z,100489.56
2023-12-05T22:19:36.608Z,100491.66
2023-12-05T22:22:02.977Z,100481.16
2023-12-05T22:24:32.762Z,100493.91
2023-12-05T22:26:59.649Z,100492.28
2023-12-05T22:29:33.950Z,100483.88
2023-12-05T22:32:00.318Z,100470.13
2023-12-05T22:34:26.769Z,100467.59
2023-12-05T22:36:53.092Z,100472.00
2023-12-05T22:39:19.741Z,100471.38
2023-12-05T22:41:46.153Z,100479.19
2023-12-05T22:44:12.523Z,100481.50
2023-12-05T22:46:39.048Z,100487.03
2023-12-05T22:49:05.592Z,100485.19
2023-12-05T22:51:32.180Z,100484.38
2023-12-05T22:53:58.566Z,100488.88
2023-12-05T22:56:24.839Z,100484.78
2023-12-05T22:58:51.284Z,100492.00
2023-12-05T23:01:17.718Z,100481.91
2023-12-05T23:03:44.251Z,100494.69
2023-12-05T23:06:10.716Z,100495.09
2023-12-05T23:08:37.096Z,100498.19
2023-12-05T23:11:03.663Z,100502.53
2023-12-05T23:13:29.941Z,100490.81
2023-12-05T23:15:56.988Z,100490.00
2023-12-05T23:18:23.273Z,100484.28
2023-12-05T23:20:49.548Z,100482.63
2023-12-05T23:23:15.807Z,100479.13
2023-12-05T23:25:42.077Z,100475.03
2023-12-05T23:28:15.406Z,100479.13
2023-12-05T23:30:45.302Z,100471.97
2023-12-05T23:33:11.580Z,100471.72
2023-12-05T23:35:37.858Z,100475.66
2023-12-05T23:38:04.368Z,100469.31
2023-12-05T23:40:30.702Z,100465.16
2023-12-05T23:42:57.127Z,100466.00
2023-12-05T23:45:23.431Z,100464.00
2023-12-05T23:47:50.911Z,100459.22
2023-12-05T23:50:17.240Z,100461.06
2023-12-05T23:52:43.586Z,100462.94
2023-12-05T23:55:09.922Z,100458.84
2023-12-05T23:57:36.365Z,100462.94
